Time;durP1;ratioP1;P1;durP2;ratioP2;P2;SDS_P1;SDS_P2;PMS_P1;PMS_P2;Temp;Humidity;BMP_temperature;BMP_pressure;BME280_temperature;BME280_humidity;BME280_pressure;Samples;Min_cycle;Max_cycle;Signal;HPM_P1;HPM_P2
2022/01/29 00:01:43;;;;;;;3.20;2.20;;;;;;;1.93;67.43;101061.48;107451;1248;61089;-80
2022/01/29 00:04:16;;;;;;;2.40;1.60;;;;;;;1.94;66.94;101065.58;107421;1248;74900;-81
2022/01/29 00:06:45;;;;;;;3.10;1.80;;;;;;;1.95;66.58;101074.98;107327;1247;72544;-81
2022/01/29 00:09:15;;;;;;;3.10;1.80;;;;;;;1.95;66.41;101071.38;107219;1248;70399;-80
2022/01/29 00:11:45;;;;;;;3.30;1.80;;;;;;;1.94;66.12;101079.84;107227;1248;72457;-79
2022/01/29 00:14:14;;;;;;;3.90;2.10;;;;;;;1.98;66.23;101078.33;107402;1247;62740;-79
2022/01/29 00:16:43;;;;;;;2.80;2.00;;;;;;;2.01;65.81;101077.36;107360;1247;61130;-80
2022/01/29 00:19:12;;;;;;;4.40;2.00;;;;;;;2.01;65.55;101077.70;107392;1247;75069;-79
2022/01/29 00:21:41;;;;;;;4.50;1.90;;;;;;;2.00;65.83;101080.33;107408;1248;72906;-74
2022/01/29 00:24:10;;;;;;;3.60;1.90;;;;;;;1.96;65.87;101085.27;107525;1247;70097;-80
2022/01/29 00:26:39;;;;;;;3.70;1.80;;;;;;;1.95;65.99;101087.89;107564;1247;73950;-85
2022/01/29 00:29:16;;;;;;;2.90;1.70;;;;;;;1.93;65.95;101094.45;107489;1247;61455;-81
2022/01/29 00:31:46;;;;;;;4.90;1.60;;;;;;;1.95;65.73;101094.39;107516;1247;60798;-82
2022/01/29 00:34:15;;;;;;;3.30;1.80;;;;;;;1.96;65.50;101101.73;107515;1249;72983;-79
2022/01/29 00:36:44;;;;;;;2.70;1.60;;;;;;;1.95;65.47;101099.39;108432;1248;71523;-79
2022/01/29 00:39:13;;;;;;;2.60;1.80;;;;;;;1.98;65.46;101110.95;107884;1247;70672;-84
2022/01/29 00:41:42;;;;;;;1.70;1.30;;;;;;;1.96;65.52;101103.65;107523;1247;74680;-78
2022/01/29 00:44:23;;;;;;;3.20;2.00;;;;;;;1.99;65.32;101109.91;107376;1247;60490;-76
2022/01/29 00:46:52;;;;;;;2.70;1.90;;;;;;;1.98;65.41;101111.30;106976;1247;469255;-81
2022/01/29 00:49:21;;;;;;;2.50;1.70;;;;;;;2.00;65.07;101110.55;107256;1250;71996;-80
2022/01/29 00:51:50;;;;;;;4.80;1.90;;;;;;;1.98;64.97;101109.40;107331;1247;72294;-80
2022/01/29 00:54:19;;;;;;;2.70;1.70;;;;;;;2.02;64.89;101104.33;107419;1247;69577;-81
2022/01/29 00:56:48;;;;;;;2.30;1.70;;;;;;;2.01;64.80;101109.16;108037;1247;71703;-79
2022/01/29 00:59:17;;;;;;;4.10;2.10;;;;;;;2.04;64.40;101109.57;108302;1247;59792;-78
2022/01/29 01:01:46;;;;;;;4.00;2.10;;;;;;;2.04;64.71;101109.73;108402;1247;59692;-77
2022/01/29 01:04:15;;;;;;;3.50;2.10;;;;;;;2.03;64.86;101111.50;107818;1248;72745;-79
2022/01/29 01:06:44;;;;;;;3.40;2.00;;;;;;;2.00;64.93;101119.34;107463;1247;69627;-77
2022/01/29 01:09:14;;;;;;;4.50;2.30;;;;;;;2.05;64.82;101120.05;107438;1248;70635;-79
2022/01/29 01:11:43;;;;;;;2.00;1.30;;;;;;;2.03;64.84;101129.02;107362;1250;71432;-80
2022/01/29 01:14:12;;;;;;;4.30;2.00;;;;;;;2.05;64.71;101126.54;107462;1247;62093;-78
2022/01/29 01:16:41;;;;;;;4.20;2.40;;;;;;;2.01;65.00;101124.61;107530;1247;62193;-80
2022/01/29 01:19:11;;;;;;;2.00;1.50;;;;;;;2.00;65.12;101133.59;107516;1247;75438;-80
2022/01/29 01:21:39;;;;;;;2.90;2.00;;;;;;;2.03;65.11;101136.23;107533;1247;72692;-78
2022/01/29 01:24:08;;;;;;;3.20;2.00;;;;;;;2.05;64.98;101142.17;107348;1250;68219;-79
2022/01/29 01:26:37;;;;;;;3.00;1.90;;;;;;;2.08;64.95;101150.70;107303;1248;73826;-80
2022/01/29 01:29:06;;;;;;;3.10;2.10;;;;;;;2.10;65.01;101151.48;107298;1249;61287;-80
2022/01/29 01:31:35;;;;;;;2.60;1.60;;;;;;;2.10;65.19;101156.48;107551;1247;59513;-82
2022/01/29 01:34:05;;;;;;;4.50;2.10;;;;;;;2.10;65.39;101156.46;107642;1247;73165;-81
2022/01/29 01:36:41;;;;;;;2.30;1.70;;;;;;;2.08;65.72;101161.85;107631;1247;71474;-79
2022/01/29 01:39:14;;;;;;;3.70;2.00;;;;;;;2.10;65.86;101162.67;107300;1248;71573;-81
2022/01/29 01:41:53;;;;;;;3.20;2.30;;;;;;;2.13;65.82;101164.45;107474;1248;72608;-81
2022/01/29 01:44:22;;;;;;;4.10;2.00;;;;;;;2.14;66.16;101166.67;107406;1247;59617;-80
2022/01/29 01:46:51;;;;;;;4.20;2.20;;;;;;;2.11;66.49;101163.48;107555;1247;60061;-80
2022/01/29 01:49:20;;;;;;;3.40;2.20;;;;;;;2.07;66.92;101168.23;107602;1247;72805;-80
2022/01/29 01:51:50;;;;;;;3.40;2.00;;;;;;;2.05;67.40;101166.42;107602;1247;70709;-81
2022/01/29 01:54:28;;;;;;;3.50;1.80;;;;;;;2.02;67.74;101163.41;107584;1247;69717;-80
2022/01/29 01:56:59;;;;;;;4.00;2.30;;;;;;;1.97;68.09;101164.08;107442;1250;71978;-79
2022/01/29 01:59:28;;;;;;;2.70;1.90;;;;;;;1.93;68.55;101164.36;107316;1248;60524;-80
2022/01/29 02:01:58;;;;;;;4.70;2.30;;;;;;;1.91;68.59;101169.07;107454;1247;61200;-80
2022/01/29 02:04:27;;;;;;;3.40;2.00;;;;;;;1.86;68.77;101176.25;107340;1249;74106;-77
2022/01/29 02:06:58;;;;;;;4.70;2.90;;;;;;;1.83;69.30;101173.93;108283;1248;73155;-80
2022/01/29 02:09:29;;;;;;;3.80;2.10;;;;;;;1.81;69.30;101176.73;107404;1250;70612;-79
2022/01/29 02:12:04;;;;;;;3.90;2.10;;;;;;;1.80;69.39;101176.09;107403;1250;71396;-79
2022/01/29 02:14:33;;;;;;;3.70;2.20;;;;;;;1.75;69.51;101178.11;107562;1247;60540;-79
2022/01/29 02:17:04;;;;;;;3.50;2.30;;;;;;;1.73;69.71;101184.19;107384;1248;59893;-80
2022/01/29 02:19:34;;;;;;;4.90;2.20;;;;;;;1.73;69.83;101177.98;107309;1248;72502;-80
2022/01/29 02:22:04;;;;;;;2.50;2.00;;;;;;;1.70;69.61;101187.86;107588;1247;71756;-80
2022/01/29 02:24:33;;;;;;;3.00;2.00;;;;;;;1.68;69.79;101190.15;107411;1248;70533;-82
2022/01/29 02:27:03;;;;;;;3.90;2.30;;;;;;;1.69;69.69;101189.95;107501;1247;75346;-80
2022/01/29 02:29:34;;;;;;;7.20;2.60;;;;;;;1.68;69.68;101189.48;107377;1248;61953;-81
2022/01/29 02:32:03;;;;;;;3.00;2.20;;;;;;;1.68;69.76;101190.50;107340;1249;62996;-80
2022/01/29 02:34:34;;;;;;;4.30;2.50;;;;;;;1.69;69.75;101190.98;107375;1250;75278;-81
2022/01/29 02:37:05;;;;;;;3.30;2.20;;;;;;;1.68;69.62;101197.02;107360;1247;70893;-81
2022/01/29 02:39:35;;;;;;;3.80;2.50;;;;;;;1.68;69.53;101203.89;107352;1250;69055;-80
2022/01/29 02:42:05;;;;;;;3.20;2.00;;;;;;;1.68;69.59;101196.86;107469;1247;72295;-82
2022/01/29 02:44:34;;;;;;;3.50;2.10;;;;;;;1.68;69.57;101206.13;107484;1247;61318;-79
2022/01/29 02:47:25;;;;;;;3.20;1.90;;;;;;;1.69;69.25;101206.09;107479;1248;60566;-81
2022/01/29 02:49:52;;;;;;;3.10;2.20;;;;;;;1.69;69.48;101212.64;107686;1247;75304;-81
2022/01/29 02:52:21;;;;;;;2.80;1.90;;;;;;;1.66;69.23;101216.65;107626;1247;73178;-81
2022/01/29 02:54:50;;;;;;;4.20;2.00;;;;;;;1.65;69.53;101216.51;107479;1248;71406;-79
2022/01/29 02:57:21;;;;;;;4.00;2.00;;;;;;;1.69;69.42;101220.20;107361;1248;74366;-78
2022/01/29 02:59:51;;;;;;;3.40;2.10;;;;;;;1.66;69.60;101221.99;107486;1247;59687;-77
2022/01/29 03:02:20;;;;;;;3.90;2.30;;;;;;;1.67;69.48;101228.50;107482;1247;59758;-79
2022/01/29 03:04:49;;;;;;;4.90;2.20;;;;;;;1.63;69.50;101230.98;107474;1247;72828;-80
2022/01/29 03:07:18;;;;;;;4.40;2.40;;;;;;;1.61;69.75;101226.77;107353;1249;70391;-79
2022/01/29 03:09:47;;;;;;;3.70;2.10;;;;;;;1.61;69.91;101229.66;107498;1247;69017;-79
2022/01/29 03:12:16;;;;;;;2.90;1.70;;;;;;;1.65;69.80;101231.98;107503;1247;72568;-80
2022/01/29 03:14:45;;;;;;;3.30;1.80;;;;;;;1.65;69.48;101233.69;107379;1250;60091;-82
2022/01/29 03:17:14;;;;;;;1.70;1.10;;;;;;;1.65;69.28;101231.46;107454;1248;59506;-79
2022/01/29 03:19:43;;;;;;;3.90;1.80;;;;;;;1.66;69.10;101233.85;107541;1247;72814;-83
2022/01/29 03:22:12;;;;;;;4.40;2.30;;;;;;;1.65;69.11;101235.39;107456;1249;70022;-82
2022/01/29 03:24:41;;;;;;;3.60;2.10;;;;;;;1.68;69.03;101240.13;107687;1249;68193;-80
2022/01/29 03:27:11;;;;;;;3.40;2.30;;;;;;;1.67;68.92;101239.48;107759;1247;74632;-81
2022/01/29 03:29:40;;;;;;;4.00;1.40;;;;;;;1.65;68.62;101236.94;107723;1250;59691;-84
2022/01/29 03:32:10;;;;;;;2.20;1.80;;;;;;;1.69;67.89;101243.70;107478;1248;60146;-79
2022/01/29 03:34:39;;;;;;;4.00;1.60;;;;;;;1.75;68.16;101242.33;107509;1247;73369;-80
2022/01/29 03:37:08;;;;;;;3.50;1.80;;;;;;;1.77;67.82;101248.80;107453;1247;71138;-80
2022/01/29 03:39:37;;;;;;;2.80;2.00;;;;;;;1.77;67.50;101251.21;107556;1246;69310;-80
2022/01/29 03:42:09;;;;;;;3.40;2.20;;;;;;;1.77;67.52;101249.84;107556;1247;74660;-81
2022/01/29 03:44:39;;;;;;;3.80;1.80;;;;;;;1.77;67.53;101259.28;107519;1248;59300;-79
2022/01/29 03:47:08;;;;;;;3.00;1.70;;;;;;;1.78;67.34;101259.77;107616;1247;60699;-81
2022/01/29 03:49:37;;;;;;;4.00;2.50;;;;;;;1.84;66.85;101264.43;107977;1249;73207;-79
2022/01/29 03:52:06;;;;;;;4.30;2.00;;;;;;;1.81;66.79;101267.40;108195;1248;69558;-79
2022/01/29 03:54:35;;;;;;;3.10;1.80;;;;;;;1.83;66.29;101274.75;107744;1248;69021;-79
2022/01/29 03:57:04;;;;;;;3.60;2.10;;;;;;;1.82;66.33;101262.05;107534;1247;71553;-82
2022/01/29 03:59:33;;;;;;;2.80;1.80;;;;;;;1.85;66.22;101265.93;107388;1248;60723;-82
2022/01/29 04:02:03;;;;;;;3.20;1.80;;;;;;;1.84;66.35;101272.65;107310;1248;60247;-80
2022/01/29 04:04:32;;;;;;;3.30;2.00;;;;;;;1.86;65.95;101278.09;107154;1249;73385;-81
2022/01/29 04:07:06;;;;;;;3.40;1.80;;;;;;;1.88;65.80;101282.01;107215;1248;72567;-80
2022/01/29 04:09:35;;;;;;;3.70;2.10;;;;;;;1.89;66.53;101278.89;107242;1248;69564;-82
2022/01/29 04:12:05;;;;;;;3.50;1.80;;;;;;;1.91;66.42;101288.45;107241;1249;73399;-79
2022/01/29 04:14:38;;;;;;;2.80;1.90;;;;;;;1.88;65.68;101294.72;107088;1249;62624;-79
2022/01/29 04:17:08;;;;;;;3.70;2.30;;;;;;;1.89;66.56;101298.14;107206;1249;59658;-80
2022/01/29 04:19:37;;;;;;;3.70;1.90;;;;;;;1.85;66.32;101299.24;107148;1249;74567;-80
2022/01/29 04:22:07;;;;;;;3.40;2.00;;;;;;;1.82;66.60;101306.88;107200;1249;71881;-82
2022/01/29 04:24:36;;;;;;;3.40;2.20;;;;;;;1.81;66.39;101310.35;107357;1249;68173;-80
2022/01/29 04:27:14;;;;;;;3.90;2.00;;;;;;;1.76;66.42;101311.20;107347;1249;71990;-81
2022/01/29 04:29:54;;;;;;;3.20;2.10;;;;;;;1.73;66.74;101319.33;107316;1249;60586;-82
2022/01/29 04:33:15;;;;;;;2.60;1.70;;;;;;;1.73;66.68;101321.21;107350;1249;59774;-81
2022/01/29 04:35:45;;;;;;;3.50;1.80;;;;;;;1.72;66.91;101328.79;107464;1247;72800;-81
2022/01/29 04:38:14;;;;;;;4.00;2.20;;;;;;;1.72;67.02;101330.35;107341;1247;73239;-80
2022/01/29 04:40:43;;;;;;;3.50;2.40;;;;;;;1.73;66.87;101331.34;107491;1248;71510;-83
2022/01/29 04:43:12;;;;;;;4.00;2.20;;;;;;;1.72;66.93;101335.32;107390;1248;74049;-82
2022/01/29 04:45:41;;;;;;;3.50;2.10;;;;;;;1.72;66.74;101338.59;107426;1250;59885;-81
2022/01/29 04:48:10;;;;;;;3.30;2.10;;;;;;;1.72;66.29;101342.20;107507;1248;61355;-81
2022/01/29 04:50:41;;;;;;;4.00;2.20;;;;;;;1.69;66.26;101344.86;107442;1248;75123;-80
2022/01/29 04:53:10;;;;;;;3.10;1.70;;;;;;;1.70;66.38;101349.27;107337;1249;71056;-82
2022/01/29 04:55:39;;;;;;;3.40;2.00;;;;;;;1.75;66.61;101349.31;107549;1247;68922;-81
2022/01/29 04:58:09;;;;;;;3.50;1.90;;;;;;;1.80;66.18;101355.55;107406;1248;74193;-80
2022/01/29 05:00:38;;;;;;;4.40;2.40;;;;;;;1.80;65.87;101364.14;107532;1248;61003;-81
2022/01/29 05:03:14;;;;;;;2.90;1.90;;;;;;;1.77;66.00;101363.02;107872;1246;60774;-82
2022/01/29 05:05:44;;;;;;;1.90;1.50;;;;;;;1.76;65.88;101374.55;107758;1246;72869;-81
2022/01/29 05:08:13;;;;;;;2.70;1.70;;;;;;;1.74;65.76;101374.40;107653;1246;71494;-80
2022/01/29 05:10:42;;;;;;;3.40;2.10;;;;;;;1.73;66.39;101373.60;107726;1246;68374;-81
2022/01/29 05:13:15;;;;;;;4.30;2.30;;;;;;;1.78;66.61;101379.48;107499;1246;71207;-80
2022/01/29 05:27:18;;;;;;;3.60;1.90;;;;;;;1.76;65.60;101402.87;107540;1246;70937;-81
2022/01/29 05:29:47;;;;;;;4.80;2.00;;;;;;;1.72;65.87;101411.58;107591;1246;74175;-81
2022/01/29 05:32:16;;;;;;;2.70;1.90;;;;;;;1.68;65.69;101404.77;107701;1246;60660;-80
2022/01/29 05:34:45;;;;;;;3.30;1.80;;;;;;;1.69;65.20;101420.58;107724;1244;60839;-80
2022/01/29 05:37:34;;;;;;;3.20;1.80;;;;;;;1.68;65.45;101418.21;107646;1246;75196;-79
2022/01/29 05:40:04;;;;;;;3.40;2.10;;;;;;;1.70;65.14;101426.91;107321;1246;72255;-80
2022/01/29 05:42:33;;;;;;;3.30;2.10;;;;;;;1.68;65.07;101422.13;107642;1246;70895;-81
2022/01/29 05:45:03;;;;;;;5.00;2.40;;;;;;;1.67;64.97;101422.50;107700;1245;74713;-81
2022/01/29 05:47:32;;;;;;;4.90;2.40;;;;;;;1.63;65.09;101429.98;107760;1246;61915;-81
2022/01/29 05:50:05;;;;;;;4.70;2.30;;;;;;;1.62;65.28;101446.67;107782;1246;61776;-80
2022/01/29 05:52:34;;;;;;;;;;;;;;;1.58;65.24;101448.14;108149;1246;74227;-79
2022/01/29 05:55:06;;;;;;;3.50;1.80;;;;;;;1.60;65.25;101451.86;108807;1246;71188;-81
2022/01/29 05:57:35;;;;;;;6.20;2.70;;;;;;;1.59;65.15;101460.82;108207;1246;67901;-83
2022/01/29 06:00:06;;;;;;;4.00;2.30;;;;;;;1.57;65.06;101464.48;107665;1245;73715;-82
2022/01/29 06:02:42;;;;;;;4.40;2.70;;;;;;;1.60;64.70;101468.52;107672;1247;59593;-80
2022/01/29 06:05:12;;;;;;;4.40;2.40;;;;;;;1.58;64.86;101472.84;107567;1246;60507;-82
2022/01/29 06:07:41;;;;;;;9.90;2.60;;;;;;;1.60;64.82;101476.23;107619;1246;73294;-81
2022/01/29 06:10:10;;;;;;;5.80;2.70;;;;;;;1.61;64.64;101476.23;107702;1246;73880;-81
2022/01/29 06:12:39;;;;;;;3.70;2.50;;;;;;;1.64;64.75;101477.52;107426;1249;71815;-82
2022/01/29 06:15:08;;;;;;;4.90;2.50;;;;;;;1.64;64.93;101476.34;107557;1246;73460;-81
2022/01/29 06:17:38;;;;;;;4.10;2.40;;;;;;;1.61;65.21;101481.73;107554;1246;59635;-83
2022/01/29 06:20:09;;;;;;;4.00;2.30;;;;;;;1.60;65.44;101482.78;107790;1247;59855;-82
2022/01/29 06:22:41;;;;;;;5.60;3.60;;;;;;;1.60;65.30;101481.56;107508;1247;75558;-81
2022/01/29 06:25:10;;;;;;;5.70;3.10;;;;;;;1.58;65.73;101482.65;107646;1246;72596;-81
2022/01/29 06:27:39;;;;;;;7.10;3.80;;;;;;;1.59;65.73;101493.95;107732;1246;69090;-81
2022/01/29 06:30:09;;;;;;;4.80;3.50;;;;;;;1.59;65.89;101499.80;107713;1246;71197;-81
2022/01/29 06:32:38;;;;;;;6.30;3.70;;;;;;;1.59;66.07;101502.55;107771;1246;59026;-81
2022/01/29 06:35:09;;;;;;;6.60;3.40;;;;;;;1.58;65.76;101505.98;107602;1246;59744;-80
2022/01/29 06:37:38;;;;;;;5.80;3.40;;;;;;;1.59;65.60;101505.98;107643;1247;72549;-82
2022/01/29 06:40:09;;;;;;;7.10;3.70;;;;;;;1.57;65.51;101509.78;107853;1245;69359;-83
2022/01/29 06:42:37;;;;;;;5.40;2.40;;;;;;;1.56;65.54;101515.65;108139;1247;70982;-81
2022/01/29 06:45:08;;;;;;;6.30;2.20;;;;;;;1.58;64.79;101518.70;108445;1245;75198;-82
2022/01/29 06:47:37;;;;;;;3.80;2.00;;;;;;;1.61;64.18;101512.27;108387;1246;59567;-81
2022/01/29 06:50:07;;;;;;;5.40;2.50;;;;;;;1.64;63.83;101520.47;108095;1246;59718;-82
2022/01/29 06:52:35;;;;;;;4.70;2.50;;;;;;;1.65;63.75;101519.76;107663;1247;73415;-82
2022/01/29 06:55:05;;;;;;;5.80;2.60;;;;;;;1.69;63.21;101516.91;107698;1246;71274;-82
2022/01/29 06:57:34;;;;;;;4.50;2.70;;;;;;;1.73;62.47;101520.23;107589;1246;70673;-83
2022/01/29 07:00:23;;;;;;;3.90;2.20;;;;;;;1.72;62.34;101519.77;107519;1246;73624;-82
2022/01/29 07:02:51;;;;;;;3.40;2.10;;;;;;;1.75;62.27;101516.42;107526;1247;59831;-83
2022/01/29 07:05:21;;;;;;;6.10;2.50;;;;;;;1.77;61.94;101516.89;107554;1246;60966;-80
2022/01/29 07:07:50;;;;;;;5.20;2.90;;;;;;;1.74;62.19;101526.59;107419;1246;75868;-82
2022/01/29 07:10:18;;;;;;;3.00;1.90;;;;;;;1.76;61.60;101526.71;107441;1246;72739;-84
2022/01/29 07:12:48;;;;;;;5.80;3.20;;;;;;;1.81;61.66;101527.77;107382;1247;72112;-83
2022/01/29 07:15:17;;;;;;;5.90;2.80;;;;;;;1.81;61.77;101530.73;107557;1246;75219;-84
2022/01/29 07:17:45;;;;;;;4.60;2.90;;;;;;;1.84;61.92;101533.73;107492;1246;60980;-85
2022/01/29 07:20:14;;;;;;;6.80;2.80;;;;;;;1.84;62.04;101538.39;107417;1246;61663;-82
2022/01/29 07:22:43;;;;;;;7.70;3.50;;;;;;;1.85;61.84;101540.58;107649;1246;74371;-82
2022/01/29 07:25:12;;;;;;;6.40;2.90;;;;;;;1.80;62.41;101541.21;107520;1246;70827;-81
2022/01/29 07:27:41;;;;;;;7.00;3.20;;;;;;;1.74;62.75;101538.61;107640;1245;69815;-79
2022/01/29 07:30:12;;;;;;;8.00;3.60;;;;;;;1.81;62.74;101546.51;107561;1246;75159;-79
2022/01/29 07:32:45;;;;;;;6.30;3.70;;;;;;;1.77;62.68;101547.11;107708;1245;60645;-81
2022/01/29 07:35:14;;;;;;;;;;;;;;;1.83;62.93;101546.30;107497;1246;61800;-82
2022/01/29 07:37:43;;;;;;;4.20;2.60;;;;;;;1.87;62.78;101545.01;107582;1246;73130;-84
2022/01/29 07:40:12;;;;;;;4.70;2.30;;;;;;;1.89;62.82;101551.85;107570;1246;72903;-84
2022/01/29 07:42:40;;;;;;;4.40;2.50;;;;;;;1.90;62.86;101552.50;107456;1246;70554;-82
2022/01/29 07:45:10;;;;;;;3.60;2.10;;;;;;;1.92;62.97;101550.90;107517;1246;72328;-81
2022/01/29 07:47:38;;;;;;;5.50;2.40;;;;;;;1.94;62.86;101559.80;107660;1246;59518;-81
2022/01/29 07:50:08;;;;;;;4.80;2.20;;;;;;;1.87;62.61;101556.02;107604;1246;60622;-79
2022/01/29 07:52:37;;;;;;;9.10;3.50;;;;;;;1.89;62.61;101550.64;107647;1246;75191;-81
2022/01/29 07:55:07;;;;;;;4.00;2.60;;;;;;;1.93;62.38;101549.51;107675;1247;72234;-83
2022/01/29 07:57:36;;;;;;;5.10;3.20;;;;;;;1.94;62.29;101561.52;107816;1246;69130;-80
2022/01/29 08:00:06;;;;;;;4.80;2.90;;;;;;;1.95;62.96;101556.86;107582;1246;71969;-81
2022/01/29 08:02:41;;;;;;;5.80;3.00;;;;;;;1.98;62.98;101570.17;107633;1245;61196;-82
2022/01/29 08:05:11;;;;;;;7.00;2.90;;;;;;;1.98;62.49;101571.73;107854;1245;62685;-84
2022/01/29 08:07:41;;;;;;;6.40;3.00;;;;;;;1.88;62.24;101568.35;107717;1246;74128;-81
2022/01/29 08:10:10;;;;;;;4.50;2.60;;;;;;;1.74;62.11;101570.89;107401;1247;70241;-81
2022/01/29 08:12:39;;;;;;;4.80;2.40;;;;;;;1.71;62.15;101580.06;107644;1246;68734;-89
2022/01/29 08:15:09;;;;;;;4.00;2.00;;;;;;;1.76;61.20;101570.15;107912;1246;71989;-85
2022/01/29 08:17:38;;;;;;;6.00;3.00;;;;;;;1.81;60.78;101575.38;108054;1246;59504;-90
2022/01/29 08:20:08;;;;;;;5.90;3.30;;;;;;;1.86;60.39;101566.51;108374;1246;59690;-89
2022/01/29 08:22:39;;;;;;;6.80;3.50;;;;;;;1.96;59.41;101571.07;108610;1246;72718;-88
2022/01/29 08:25:09;;;;;;;4.10;2.60;;;;;;;2.01;59.13;101576.30;108658;1246;70049;-78
2022/01/29 08:27:38;;;;;;;8.40;3.70;;;;;;;2.09;58.60;101575.09;108021;1246;68336;-89
2022/01/29 08:30:07;;;;;;;5.10;2.10;;;;;;;2.17;58.03;101578.17;107805;1247;71194;-88
2022/01/29 08:32:41;;;;;;;6.10;2.40;;;;;;;2.22;56.97;101578.05;107715;1246;59558;-87
2022/01/29 08:35:14;;;;;;;7.80;3.80;;;;;;;2.25;55.70;101579.67;107875;1246;60543;-85
2022/01/29 08:37:45;;;;;;;4.50;2.70;;;;;;;2.31;55.82;101572.99;107922;1246;73670;-82
2022/01/29 08:40:19;;;;;;;6.40;2.10;;;;;;;2.27;55.49;101577.58;107849;1246;71992;-81
2022/01/29 08:42:48;;;;;;;4.70;1.90;;;;;;;2.33;54.85;101569.88;107816;1246;71316;-83
2022/01/29 08:45:17;;;;;;;4.80;2.10;;;;;;;2.45;55.15;101571.83;107764;1246;74306;-84
2022/01/29 08:47:46;;;;;;;6.90;2.10;;;;;;;2.48;53.68;101582.73;107811;1246;60771;-81
2022/01/29 08:50:15;;;;;;;3.50;1.60;;;;;;;2.44;51.83;101586.78;107837;1246;58829;-81
2022/01/29 08:52:44;;;;;;;3.60;1.60;;;;;;;2.45;52.07;101576.63;107858;1246;71681;-78
2022/01/29 08:55:14;;;;;;;2.80;1.60;;;;;;;2.46;51.69;101577.80;107742;1246;69287;-84
2022/01/29 08:57:42;;;;;;;3.20;1.60;;;;;;;2.52;51.08;101571.97;107770;1246;70596;-83
2022/01/29 09:00:14;;;;;;;3.40;1.50;;;;;;;2.49;50.47;101577.38;107920;1246;75745;-82
2022/01/29 09:02:43;;;;;;;3.80;1.30;;;;;;;2.51;50.54;101581.30;108583;1246;60947;-82
2022/01/29 09:05:13;;;;;;;5.30;1.40;;;;;;;2.54;50.19;101588.95;107687;1246;61905;-83
2022/01/29 09:07:42;;;;;;;5.90;1.70;;;;;;;2.55;50.06;101579.28;107738;1246;72891;-81
2022/01/29 09:10:12;;;;;;;4.00;1.60;;;;;;;2.62;49.98;101587.89;107780;1246;73508;-78
2022/01/29 09:12:41;;;;;;;3.50;1.70;;;;;;;2.61;49.84;101587.38;107399;1247;71424;-79
2022/01/29 09:15:11;;;;;;;6.00;2.30;;;;;;;2.72;50.10;101572.66;107586;1247;74916;-80
2022/01/29 09:17:40;;;;;;;4.00;2.00;;;;;;;2.75;50.38;101590.31;107738;1246;62026;-84
2022/01/29 09:20:11;;;;;;;6.70;2.00;;;;;;;2.78;50.36;101583.18;107603;1246;60934;-80
2022/01/29 09:22:40;;;;;;;6.00;1.70;;;;;;;2.82;50.17;101595.81;107729;1246;73449;-84
2022/01/29 09:25:12;;;;;;;5.70;2.00;;;;;;;2.83;49.62;101595.95;107620;1247;71098;-76
2022/01/29 09:27:41;;;;;;;6.70;2.80;;;;;;;2.88;49.32;101586.52;107726;1246;71128;-81
2022/01/29 09:30:10;;;;;;;4.50;2.30;;;;;;;2.81;49.42;101588.25;107759;1246;73517;-82
2022/01/29 09:32:39;;;;;;;4.40;2.40;;;;;;;2.70;49.77;101582.86;107811;1246;59598;-81
2022/01/29 09:35:08;;;;;;;8.40;2.50;;;;;;;2.64;49.51;101590.76;107824;1247;59541;-81
2022/01/29 09:37:37;;;;;;;7.90;2.50;;;;;;;2.67;50.42;101585.18;108680;1246;72461;-82
2022/01/29 09:40:07;;;;;;;6.60;2.30;;;;;;;2.65;50.44;101586.78;108411;1246;70577;-80
2022/01/29 09:42:37;;;;;;;8.00;2.20;;;;;;;2.63;50.84;101588.89;108075;1246;68781;-80
2022/01/29 09:45:08;;;;;;;3.60;2.10;;;;;;;2.71;50.27;101594.70;107701;1246;73159;-82
2022/01/29 09:47:39;;;;;;;6.50;2.30;;;;;;;2.63;49.33;101588.55;107572;1246;59520;-81
2022/01/29 09:50:10;;;;;;;6.90;3.00;;;;;;;2.70;48.71;101578.73;107520;1246;60007;-83
2022/01/29 09:52:39;;;;;;;3.40;2.00;;;;;;;2.71;48.27;101584.90;107699;1246;74501;-86
2022/01/29 09:55:10;;;;;;;6.60;2.60;;;;;;;2.61;47.73;101579.14;107629;1246;73852;-81
2022/01/29 09:57:39;;;;;;;7.70;3.00;;;;;;;2.57;47.18;101585.79;107569;1246;70906;-84
2022/01/29 10:00:10;;;;;;;5.50;3.10;;;;;;;2.58;46.67;101572.00;107589;1246;73257;-83
2022/01/29 10:02:39;;;;;;;5.10;2.50;;;;;;;2.64;46.84;101573.73;107449;1248;59627;-84
2022/01/29 10:05:11;;;;;;;5.00;2.70;;;;;;;2.68;46.46;101581.55;107505;1247;59741;-86
2022/01/29 10:07:40;;;;;;;5.20;2.10;;;;;;;2.75;45.80;101582.91;107400;1247;73859;-83
2022/01/29 10:10:19;;;;;;;3.60;1.70;;;;;;;2.66;46.17;101583.83;107467;1247;70153;-82
2022/01/29 10:12:48;;;;;;;3.70;2.00;;;;;;;2.67;46.19;101576.38;107465;1247;70621;-85
2022/01/29 10:15:16;;;;;;;5.20;2.40;;;;;;;2.74;46.08;101576.90;107647;1246;74343;-82
2022/01/29 10:17:56;;;;;;;3.70;1.80;;;;;;;2.79;46.00;101582.96;107442;1247;60590;-81
2022/01/29 10:20:29;;;;;;;4.30;1.60;;;;;;;2.89;46.46;101582.36;108340;1246;62320;-78
2022/01/29 10:23:01;;;;;;;3.40;1.40;;;;;;;3.13;45.60;101571.58;107788;1245;73027;-78
2022/01/29 10:25:34;;;;;;;3.40;1.70;;;;;;;3.22;46.21;101569.77;107615;1246;72701;-79
2022/01/29 10:28:17;;;;;;;4.60;2.10;;;;;;;3.41;46.07;101570.59;107614;1246;71447;-80
2022/01/29 10:30:49;;;;;;;4.20;1.90;;;;;;;3.32;45.08;101563.61;107527;1247;71937;-79
2022/01/29 10:33:40;;;;;;;5.60;1.80;;;;;;;3.36;44.37;101571.42;107564;1246;59716;-77
2022/01/29 10:36:17;;;;;;;4.20;1.50;;;;;;;3.47;44.45;101573.20;107473;1247;58822;-81
2022/01/29 10:38:50;;;;;;;3.90;1.90;;;;;;;3.47;44.41;101565.27;107537;1246;74187;-84
2022/01/29 10:41:30;;;;;;;4.40;2.00;;;;;;;3.64;43.61;101562.00;107379;1247;71448;-77
2022/01/29 10:44:17;;;;;;;4.50;2.20;;;;;;;3.54;43.46;101574.52;107503;1247;70475;-82
2022/01/29 10:46:55;;;;;;;4.20;1.80;;;;;;;3.35;43.77;101581.29;107531;1246;74642;-76
2022/01/29 10:49:30;;;;;;;4.20;1.70;;;;;;;3.32;44.61;101586.71;107623;1247;60012;-80
2022/01/29 10:52:13;;;;;;;5.20;2.60;;;;;;;3.36;45.39;101573.33;107670;1246;61351;-75
2022/01/29 10:54:44;;;;;;;5.40;2.20;;;;;;;3.41;45.50;101571.64;107812;1246;75795;-77
2022/01/29 10:57:18;;;;;;;4.20;2.00;;;;;;;3.36;45.05;101572.29;107755;1246;71072;-76
2022/01/29 10:59:53;;;;;;;5.60;2.20;;;;;;;3.39;43.90;101560.32;107395;1247;70494;-81
2022/01/29 11:02:29;;;;;;;6.00;2.30;;;;;;;3.25;44.00;101560.21;107596;1246;71581;-78
2022/01/29 11:05:02;;;;;;;3.00;1.80;;;;;;;3.24;43.60;101565.39;107592;1246;60051;-78
2022/01/29 11:07:31;;;;;;;7.40;2.00;;;;;;;3.13;42.82;101563.64;107630;1245;61088;-79
2022/01/29 11:10:04;;;;;;;3.10;1.40;;;;;;;3.15;42.63;101554.11;107209;1247;72396;-80
2022/01/29 11:12:42;;;;;;;7.60;2.20;;;;;;;3.17;42.79;101549.92;108212;1248;72319;-80
2022/01/29 11:15:11;;;;;;;;;;;;;;;3.28;41.77;101547.02;107681;1246;71374;-82
2022/01/29 11:17:40;;;;;;;3.10;1.50;;;;;;;3.42;40.60;101552.14;107513;1246;73022;-77
2022/01/29 11:20:13;;;;;;;3.90;1.60;;;;;;;3.56;39.84;101547.27;107474;1247;58947;-80
2022/01/29 11:22:46;;;;;;;2.80;1.50;;;;;;;3.64;40.35;101545.13;107546;1247;59942;-78
2022/01/29 11:25:24;;;;;;;3.40;1.60;;;;;;;3.68;40.42;101544.81;107618;1246;74435;-81
2022/01/29 11:28:26;;;;;;;3.30;1.80;;;;;;;3.79;41.03;101543.11;107697;1246;73148;-76
2022/01/29 11:31:13;;;;;;;5.50;1.90;;;;;;;3.80;40.73;101557.20;107557;1246;69007;-79
2022/01/29 11:33:58;;;;;;;5.80;1.60;;;;;;;3.63;40.59;101541.02;107584;1247;72055;-81
2022/01/29 11:36:48;;;;;;;3.70;1.40;;;;;;;3.77;39.03;101539.88;107663;1246;59601;-77
2022/01/29 11:39:42;;;;;;;3.70;1.60;;;;;;;3.86;39.34;101539.10;107543;1246;60390;-75
2022/01/29 11:42:12;;;;;;;4.50;2.30;;;;;;;3.70;39.99;101532.17;107570;1246;72979;-74
2022/01/29 11:44:45;;;;;;;5.80;1.80;;;;;;;3.85;39.86;101543.77;107482;1246;70366;-74
2022/01/29 11:47:27;;;;;;;3.10;1.80;;;;;;;3.85;40.76;101533.27;107704;1246;68704;-75
2022/01/29 11:50:26;;;;;;;4.10;2.00;;;;;;;3.82;42.03;101543.53;107570;1246;74936;-84
2022/01/29 11:53:04;;;;;;;3.10;1.90;;;;;;;3.47;43.63;101546.14;107395;1247;59501;-79
2022/01/29 11:55:40;;;;;;;3.10;2.00;;;;;;;3.34;44.35;101544.27;107355;1247;60896;-81
2022/01/29 11:58:18;;;;;;;3.50;2.20;;;;;;;3.07;44.86;101550.75;107603;1245;75072;-82